• Join FlightAware (Why Join?)
  • Login
  • US Flag 
06:55AM EDT


 

Airport Tracker/Info


-or-


 

Live Flight TrackerFlight Track Log ✈ UCA4838 ✈ 10-Aug-2013 ✈ KROC - KEWR

Flight Track Log - Related Links

Times and Time Zones

All times are in EDT time to prevent confusion due to time zone crossing. See the UCA4838 flight status page for this flight to view local times or setup timezone preferences in your user account.

Time Position Orientation Groundspeed Altitude Reporting Facility
EDT Latitude Longitude Course Direction KTS MPH feet Rate Location/Type
06:10AM 43.1014 -77.6914 159° South 106 122 1,200  Level Cleveland Center
06:11AM 43.0614 -77.6706 159° South 184 212 2,500 1,260 Climbing Cleveland Center
06:12AM 43.0431 -77.6031 110° East 186 214 3,800 1,140 Climbing Cleveland Center
06:12AM 43.0294 -77.5669 117° Southeast 185 213 4,500 1,020 Climbing Cleveland Center
06:13AM 43.0047 -77.5000 117° Southeast 206 237 5,600 1,140 Climbing Cleveland Center
06:14AM 42.9800 -77.4331 117° Southeast 211 243 6,800 660 Climbing Cleveland Center
06:15AM 42.9531 -77.3578 116° Southeast 211 243 7,000 60 Climbing Cleveland Center
06:16AM 42.9214 -77.2686 116° Southeast 231 266 7,000 600 Level Cleveland Center
06:17AM 42.8875 -77.1825 118° Southeast 249 287 8,200 1,200 Climbing Cleveland Center
06:18AM 42.8600 -77.1019 115° Southeast 249 287 9,400 960 Climbing Cleveland Center
06:20AM 42.8075 -76.9528 116° Southeast 245 282 11,000 960 Climbing New York Center
06:21AM 42.7736 -76.8819 123° Southeast 239 275 12,200 1,080 Climbing New York Center
06:22AM 42.7511 -76.8319 121° Southeast 228 262 12,900 420 Climbing Boston Center
06:23AM 42.7167 -76.7531 121° Southeast 228 262 13,000  Climbing Boston Center
06:24AM 42.6819 -76.6800 123° Southeast 242 278 13,000 -60 Level Boston Center
06:25AM 42.6394 -76.5867 122° Southeast 267 307 12,900 -60 Descending Boston Center
06:26AM 42.5992 -76.4908 120° Southeast 280 322 12,900  Level Boston Center
06:27AM 42.5544 -76.3950 122° Southeast 292 336 12,900  Level Boston Center
06:28AM 42.5119 -76.2992 121° Southeast 292 336 12,900  Level Boston Center
06:29AM 42.4656 -76.1922 120° Southeast 303 349 12,900  Level Boston Center
06:30AM 42.4228 -76.0969 121° Southeast 297 342 12,900  Level Boston Center
06:31AM 42.3797 -76.0044 122° Southeast 304 350 12,900  Level Boston Center
06:32AM 42.3350 -75.9033 121° Southeast 297 342 12,900  Level Boston Center
06:33AM 42.2917 -75.8167 124° Southeast 297 342 12,900  Level Boston Center
06:34AM 42.2489 -75.7133 119° Southeast 297 342 12,900  Level Boston Center
06:35AM 42.2056 -75.6214 122° Southeast 297 342 12,900  Level Boston Center
06:36AM 42.1603 -75.5267 123° Southeast 297 342 12,900  Level Boston Center
06:37AM 42.1192 -75.4294 120° Southeast 297 342 13,000  Climbing Boston Center
06:38AM 42.0736 -75.3378 124° Southeast 297 342 13,000  Level Boston Center
06:39AM 42.0364 -75.2383 117° Southeast 297 342 13,000  Level Boston Center
06:40AM 41.9994 -75.1389 117° Southeast 297 342 13,000  Level Boston Center
06:41AM 41.9617 -75.0506 120° Southeast 297 342 13,000  Level Boston Center
06:42AM 41.9206 -74.9428 117° Southeast 297 342 13,000  Level Boston Center
06:43AM 41.8869 -74.8550 117° Southeast 297 342 13,000 -660 Level Boston Center
06:44AM 41.8156 -74.7744 140° Southeast 291 335 11,700 -1,260 Descending Boston Center
06:45AM 41.7567 -74.7083 140° Southeast 307 353 10,500 -1,380 Descending Boston Center
06:46AM 41.6872 -74.6250 138° Southeast 312 359 9,100 -1,320 Descending Boston Center
06:47AM 41.6261 -74.5647 144° Southeast 307 353 8,000 -1,140 Descending Boston Center
06:48AM 41.5444 -74.5703 183° South 273 314 6,900 -1,020 Descending Boston Center
06:49AM 41.4797 -74.5792 186° South 265 305 6,000 -360 Descending Boston Center
06:50AM 41.3667 -74.5833 182° South 259 298 6,100  Climbing New York TRACON
06:51AM 41.3000 -74.5500 159° South 263 303 6,100  Level New York TRACON
06:52AM 41.2333 -74.5333 169° South 261 300 6,100  Level New York TRACON
06:53AM 41.1500 -74.5167 171° South 259 298 6,100  Level New York TRACON
06:54AM 41.0833 -74.5000 169° South 254 292 6,100  Level New York TRACON
06:55AM 41.0167 -74.5000 180° South 254 292 6,100  Level New York TRACON
06:56AM 40.9500 -74.5000 180° South 249 287 6,100  Level New York TRACON
06:57AM 40.8667 -74.5000 180° South 250 288 6,100  Level New York TRACON
06:58AM 40.8000 -74.5000 180° South 249 287 6,100  Level New York TRACON
06:59AM 40.7333 -74.4667 159° South 258 297 6,100 -360 Level New York TRACON
07:00AM 40.6667 -74.4333 159° South 261 300 5,400 -900 Descending New York TRACON
07:01AM 40.6000 -74.4000 159° South 260 299 4,300 -900 Descending New York TRACON
07:02AM 40.5500 -74.3500 143° Southeast 220 253 3,600 -840 Descending New York TRACON
07:03AM 40.5500 -74.2833 90° East 203 234 2,700 -660 Descending New York TRACON
07:04AM 40.5833 -74.2333 49° Northeast 166 191 2,300 -660 Descending New York TRACON
07:05AM 40.6167 -74.2167 21° North 172 198 1,400 -840 Descending New York TRACON
07:06AM 40.6500 -74.1833 37° Northeast 125 144 700 -720 Descending New York TRACON
07:08AM 40.6833 -74.1667 85° East  Level FlightAware Approximate
07:15AM 40.6925 -74.1687 85° East  Level Estimated